sensor_id;sensor_type;location;lat;lon;timestamp;pressure;altitude;pressure_sealevel;temperature
64458;BMP280;58438;51.200;7.252;2022-12-01T06:58:16;98661.59;;;4.81
64458;BMP280;58438;51.200;7.252;2022-12-01T07:01:08;98659.78;;;4.71
64458;BMP280;58438;51.200;7.252;2022-12-01T07:03:57;98665.06;;;4.82
64458;BMP280;58438;51.200;7.252;2022-12-01T07:06:45;98663.22;;;4.75
64458;BMP280;58438;51.200;7.252;2022-12-01T07:09:33;98673.31;;;4.68
64458;BMP280;58438;51.200;7.252;2022-12-01T07:12:21;98668.00;;;4.64
64458;BMP280;58438;51.200;7.252;2022-12-01T07:15:09;98671.25;;;4.52
64458;BMP280;58438;51.200;7.252;2022-12-01T07:17:57;98665.97;;;4.45
64458;BMP280;58438;51.200;7.252;2022-12-01T07:20:46;98674.94;;;4.65
64458;BMP280;58438;51.200;7.252;2022-12-01T07:23:34;98671.56;;;4.58
64458;BMP280;58438;51.200;7.252;2022-12-01T07:26:21;98681.09;;;4.66
64458;BMP280;58438;51.200;7.252;2022-12-01T07:29:09;98678.84;;;4.61
64458;BMP280;58438;51.200;7.252;2022-12-01T07:31:57;98679.38;;;4.49
64458;BMP280;58438;51.200;7.252;2022-12-01T07:34:45;98680.41;;;4.62
64458;BMP280;58438;51.200;7.252;2022-12-01T07:37:34;98678.53;;;4.55
64458;BMP280;58438;51.200;7.252;2022-12-01T07:40:22;98681.97;;;4.59
64458;BMP280;58438;51.200;7.252;2022-12-01T07:43:09;98679.50;;;4.68
64458;BMP280;58438;51.200;7.252;2022-12-01T07:46:02;98684.56;;;4.66
64458;BMP280;58438;51.200;7.252;2022-12-01T07:48:51;98686.03;;;4.71
64458;BMP280;58438;51.200;7.252;2022-12-01T07:51:39;98684.22;;;4.61
64458;BMP280;58438;51.200;7.252;2022-12-01T07:54:28;98687.72;;;4.61
64458;BMP280;58438;51.200;7.252;2022-12-01T07:57:15;98685.41;;;4.60
64458;BMP280;58438;51.200;7.252;2022-12-01T08:00:06;98682.75;;;4.56
64458;BMP280;58438;51.200;7.252;2022-12-01T08:02:53;98688.72;;;4.71
64458;BMP280;58438;51.200;7.252;2022-12-01T08:05:41;98689.47;;;4.71
64458;BMP280;58438;51.200;7.252;2022-12-01T08:08:29;98691.97;;;4.59
64458;BMP280;58438;51.200;7.252;2022-12-01T08:11:21;98692.00;;;4.55
64458;BMP280;58438;51.200;7.252;2022-12-01T08:14:09;98708.50;;;4.61
64458;BMP280;58438;51.200;7.252;2022-12-01T08:16:56;98703.56;;;4.56
64458;BMP280;58438;51.200;7.252;2022-12-01T08:19:44;98705.06;;;4.60
64458;BMP280;58438;51.200;7.252;2022-12-01T08:22:33;98708.31;;;4.48
64458;BMP280;58438;51.200;7.252;2022-12-01T08:25:20;98716.81;;;4.47
64458;BMP280;58438;51.200;7.252;2022-12-01T08:28:09;98710.19;;;4.51
64458;BMP280;58438;51.200;7.252;2022-12-01T08:30:56;98713.28;;;4.50
64458;BMP280;58438;51.200;7.252;2022-12-01T08:33:44;98710.53;;;4.53
64458;BMP280;58438;51.200;7.252;2022-12-01T08:36:32;98711.16;;;4.34
64458;BMP280;58438;51.200;7.252;2022-12-01T08:39:20;98719.91;;;4.45
64458;BMP280;58438;51.200;7.252;2022-12-01T08:42:07;98714.91;;;4.44
64458;BMP280;58438;51.200;7.252;2022-12-01T08:44:57;98707.63;;;4.41
64458;BMP280;58438;51.200;7.252;2022-12-01T08:47:45;98708.22;;;4.52
64458;BMP280;58438;51.200;7.252;2022-12-01T08:50:32;98718.28;;;4.51
64458;BMP280;58438;51.200;7.252;2022-12-01T08:53:20;98715.03;;;4.63
64458;BMP280;58438;51.200;7.252;2022-12-01T08:56:11;98715.56;;;4.51
64458;BMP280;58438;51.200;7.252;2022-12-01T08:58:59;98714.88;;;4.47
64458;BMP280;58438;51.200;7.252;2022-12-01T09:01:48;98713.59;;;4.55
64458;BMP280;58438;51.200;7.252;2022-12-01T09:04:39;98719.84;;;4.49
64458;BMP280;58438;51.200;7.252;2022-12-01T09:07:26;98716.84;;;4.43
64458;BMP280;58438;51.200;7.252;2022-12-01T09:10:14;98715.25;;;4.46
64458;BMP280;58438;51.200;7.252;2022-12-01T09:13:02;98720.19;;;4.51
64458;BMP280;58438;51.200;7.252;2022-12-01T09:15:54;98719.97;;;4.38
64458;BMP280;58438;51.200;7.252;2022-12-01T09:18:44;98726.31;;;4.55
64458;BMP280;58438;51.200;7.252;2022-12-01T09:21:33;98724.63;;;4.34
64458;BMP280;58438;51.200;7.252;2022-12-01T09:24:22;98720.34;;;4.40
64458;BMP280;58438;51.200;7.252;2022-12-01T09:27:10;98721.34;;;4.50
64458;BMP280;58438;51.200;7.252;2022-12-01T09:29:58;98731.75;;;4.51
64458;BMP280;58438;51.200;7.252;2022-12-01T09:32:46;98728.06;;;4.38
64458;BMP280;58438;51.200;7.252;2022-12-01T09:35:35;98732.28;;;4.39
64458;BMP280;58438;51.200;7.252;2022-12-01T09:38:22;98733.28;;;4.52
64458;BMP280;58438;51.200;7.252;2022-12-01T09:41:14;98727.75;;;4.63
64458;BMP280;58438;51.200;7.252;2022-12-01T09:44:10;98734.16;;;4.72
64458;BMP280;58438;51.200;7.252;2022-12-01T09:47:06;98735.69;;;4.73
64458;BMP280;58438;51.200;7.252;2022-12-01T09:49:58;98737.28;;;4.71
64458;BMP280;58438;51.200;7.252;2022-12-01T09:52:50;98728.13;;;4.65
64458;BMP280;58438;51.200;7.252;2022-12-01T09:55:38;98724.50;;;4.75
64458;BMP280;58438;51.200;7.252;2022-12-01T09:58:28;98729.19;;;4.71
64458;BMP280;58438;51.200;7.252;2022-12-01T10:01:18;98723.66;;;4.81
64458;BMP280;58438;51.200;7.252;2022-12-01T10:04:18;98716.34;;;4.78
64458;BMP280;58438;51.200;7.252;2022-12-01T10:07:13;98720.69;;;4.69
64458;BMP280;58438;51.200;7.252;2022-12-01T10:10:09;98725.63;;;4.77
64458;BMP280;58438;51.200;7.252;2022-12-01T10:12:58;98722.56;;;4.75
64458;BMP280;58438;51.200;7.252;2022-12-01T10:15:51;98720.28;;;4.74
64458;BMP280;58438;51.200;7.252;2022-12-01T10:18:50;98719.34;;;4.57
64458;BMP280;58438;51.200;7.252;2022-12-01T10:21:56;98723.94;;;4.60
64458;BMP280;58438;51.200;7.252;2022-12-01T10:24:52;98711.00;;;4.75
64458;BMP280;58438;51.200;7.252;2022-12-01T10:27:49;98720.47;;;4.60
64458;BMP280;58438;51.200;7.252;2022-12-01T10:30:47;98711.16;;;4.64
64458;BMP280;58438;51.200;7.252;2022-12-01T10:33:43;98704.94;;;4.67
64458;BMP280;58438;51.200;7.252;2022-12-01T10:36:32;98711.94;;;4.65
64458;BMP280;58438;51.200;7.252;2022-12-01T10:39:26;98715.03;;;4.63
64458;BMP280;58438;51.200;7.252;2022-12-01T10:42:18;98712.69;;;4.65
64458;BMP280;58438;51.200;7.252;2022-12-01T10:45:14;98709.91;;;4.69
64458;BMP280;58438;51.200;7.252;2022-12-01T10:48:10;98705.06;;;4.60
64458;BMP280;58438;51.200;7.252;2022-12-01T10:51:13;98711.72;;;4.79
64458;BMP280;58438;51.200;7.252;2022-12-01T10:54:07;98707.03;;;4.83
64458;BMP280;58438;51.200;7.252;2022-12-01T10:56:57;98706.69;;;4.81
64458;BMP280;58438;51.200;7.252;2022-12-01T10:59:48;98702.56;;;4.73
64458;BMP280;58438;51.200;7.252;2022-12-01T11:02:42;98712.34;;;4.63
64458;BMP280;58438;51.200;7.252;2022-12-01T11:05:35;98699.13;;;4.69
64458;BMP280;58438;51.200;7.252;2022-12-01T11:08:32;98697.13;;;4.76
64458;BMP280;58438;51.200;7.252;2022-12-01T11:11:24;98698.56;;;4.84
64458;BMP280;58438;51.200;7.252;2022-12-01T11:14:17;98699.72;;;4.57
64458;BMP280;58438;51.200;7.252;2022-12-01T11:17:26;98704.38;;;4.53
64458;BMP280;58438;51.200;7.252;2022-12-01T11:20:24;98698.78;;;4.67
64458;BMP280;58438;51.200;7.252;2022-12-01T11:23:24;98697.25;;;4.39
64458;BMP280;58438;51.200;7.252;2022-12-01T11:26:15;98703.66;;;4.49
64458;BMP280;58438;51.200;7.252;2022-12-01T11:29:19;98692.16;;;4.45
64458;BMP280;58438;51.200;7.252;2022-12-01T11:32:15;98686.72;;;4.48
64458;BMP280;58438;51.200;7.252;2022-12-01T11:35:13;98688.59;;;4.51
64458;BMP280;58438;51.200;7.252;2022-12-01T11:38:04;98684.47;;;4.47
64458;BMP280;58438;51.200;7.252;2022-12-01T11:41:24;98690.19;;;4.49
64458;BMP280;58438;51.200;7.252;2022-12-01T11:44:16;98696.38;;;4.46
64458;BMP280;58438;51.200;7.252;2022-12-01T11:47:25;98691.38;;;4.48
64458;BMP280;58438;51.200;7.252;2022-12-01T11:50:24;98686.13;;;4.64
64458;BMP280;58438;51.200;7.252;2022-12-01T11:53:27;98673.53;;;4.54
64458;BMP280;58438;51.200;7.252;2022-12-01T11:56:18;98676.88;;;4.65
64458;BMP280;58438;51.200;7.252;2022-12-01T11:59:11;98676.81;;;4.68
64458;BMP280;58438;51.200;7.252;2022-12-01T12:02:09;98691.47;;;4.67
64458;BMP280;58438;51.200;7.252;2022-12-01T12:05:18;98688.72;;;4.71
64458;BMP280;58438;51.200;7.252;2022-12-01T12:08:19;98682.53;;;4.70
64458;BMP280;58438;51.200;7.252;2022-12-01T12:11:16;98691.31;;;4.78
64458;BMP280;58438;51.200;7.252;2022-12-01T12:14:27;98686.91;;;4.87
64458;BMP280;58438;51.200;7.252;2022-12-01T12:17:29;98684.28;;;4.84
64458;BMP280;58438;51.200;7.252;2022-12-01T12:20:41;98673.84;;;4.86
64458;BMP280;58438;51.200;7.252;2022-12-01T12:23:46;98678.19;;;4.80
64458;BMP280;58438;51.200;7.252;2022-12-01T12:26:41;98680.75;;;4.87
64458;BMP280;58438;51.200;7.252;2022-12-01T12:29:46;98671.66;;;4.77
64458;BMP280;58438;51.200;7.252;2022-12-01T12:32:46;98670.72;;;4.87
64458;BMP280;58438;51.200;7.252;2022-12-01T12:35:43;98669.84;;;4.97
64458;BMP280;58438;51.200;7.252;2022-12-01T12:38:47;98663.00;;;4.89
64458;BMP280;58438;51.200;7.252;2022-12-01T12:41:43;98667.22;;;4.90
64458;BMP280;58438;51.200;7.252;2022-12-01T12:44:43;98658.31;;;4.93
64458;BMP280;58438;51.200;7.252;2022-12-01T12:47:44;98656.47;;;4.87
64458;BMP280;58438;51.200;7.252;2022-12-01T12:50:40;98654.13;;;4.89
64458;BMP280;58438;51.200;7.252;2022-12-01T12:53:37;98657.13;;;4.94
64458;BMP280;58438;51.200;7.252;2022-12-01T12:56:29;98657.06;;;4.75
64458;BMP280;58438;51.200;7.252;2022-12-01T12:59:21;98653.19;;;4.76
64458;BMP280;58438;51.200;7.252;2022-12-01T13:02:13;98656.06;;;4.88
64458;BMP280;58438;51.200;7.252;2022-12-01T13:05:06;98649.13;;;4.87
64458;BMP280;58438;51.200;7.252;2022-12-01T13:07:58;98654.88;;;4.93
64458;BMP280;58438;51.200;7.252;2022-12-01T13:10:53;98641.16;;;4.80
64458;BMP280;58438;51.200;7.252;2022-12-01T13:13:56;98645.25;;;4.65
64458;BMP280;58438;51.200;7.252;2022-12-01T13:16:49;98642.25;;;4.60
64458;BMP280;58438;51.200;7.252;2022-12-01T13:19:39;98639.28;;;4.51
64458;BMP280;58438;51.200;7.252;2022-12-01T13:22:29;98643.38;;;4.62
64458;BMP280;58438;51.200;7.252;2022-12-01T13:25:35;98644.38;;;4.72
64458;BMP280;58438;51.200;7.252;2022-12-01T13:28:27;98636.13;;;4.59
64458;BMP280;58438;51.200;7.252;2022-12-01T13:31:17;98643.63;;;4.71
64458;BMP280;58438;51.200;7.252;2022-12-01T13:34:06;98640.56;;;4.69
64458;BMP280;58438;51.200;7.252;2022-12-01T13:36:54;98641.59;;;4.79
64458;BMP280;58438;51.200;7.252;2022-12-01T13:39:43;98630.94;;;4.68
64458;BMP280;58438;51.200;7.252;2022-12-01T13:42:31;98627.81;;;4.73
64458;BMP280;58438;51.200;7.252;2022-12-01T13:45:19;98621.94;;;4.78
64458;BMP280;58438;51.200;7.252;2022-12-01T13:48:26;98628.25;;;4.68
64458;BMP280;58438;51.200;7.252;2022-12-01T13:51:15;98623.22;;;4.70
64458;BMP280;58438;51.200;7.252;2022-12-01T13:54:05;98620.91;;;4.69
64458;BMP280;58438;51.200;7.252;2022-12-01T13:57:12;98622.63;;;4.59
64458;BMP280;58438;51.200;7.252;2022-12-01T14:03:30;98619.16;;;4.59
64458;BMP280;58438;51.200;7.252;2022-12-01T14:06:27;98625.06;;;4.50
64458;BMP280;58438;51.200;7.252;2022-12-01T14:09:20;98629.91;;;4.36
64458;BMP280;58438;51.200;7.252;2022-12-01T14:12:15;98630.84;;;4.49
64458;BMP280;58438;51.200;7.252;2022-12-01T14:15:26;98622.25;;;4.57
64458;BMP280;58438;51.200;7.252;2022-12-01T14:18:29;98631.22;;;4.51
64458;BMP280;58438;51.200;7.252;2022-12-01T14:21:41;98621.91;;;4.55
64458;BMP280;58438;51.200;7.252;2022-12-01T14:24:33;98619.69;;;4.50
64458;BMP280;58438;51.200;7.252;2022-12-01T14:27:32;98614.94;;;4.58
64458;BMP280;58438;51.200;7.252;2022-12-01T14:30:59;98621.06;;;4.62
64458;BMP280;58438;51.200;7.252;2022-12-01T14:33:51;98621.28;;;4.48
64458;BMP280;58438;51.200;7.252;2022-12-01T14:36:43;98621.47;;;4.60
64458;BMP280;58438;51.200;7.252;2022-12-01T14:39:33;98624.25;;;4.53
64458;BMP280;58438;51.200;7.252;2022-12-01T14:42:27;98624.72;;;4.48
64458;BMP280;58438;51.200;7.252;2022-12-01T14:45:38;98623.59;;;4.46
64458;BMP280;58438;51.200;7.252;2022-12-01T14:48:33;98625.91;;;4.47
64458;BMP280;58438;51.200;7.252;2022-12-01T14:51:25;98614.03;;;4.41
64458;BMP280;58438;51.200;7.252;2022-12-01T14:54:21;98614.81;;;4.42
64458;BMP280;58438;51.200;7.252;2022-12-01T14:57:11;98611.91;;;4.29
64458;BMP280;58438;51.200;7.252;2022-12-01T15:00:05;98622.16;;;4.38
64458;BMP280;58438;51.200;7.252;2022-12-01T15:02:56;98618.88;;;4.27
64458;BMP280;58438;51.200;7.252;2022-12-01T15:05:45;98617.19;;;4.36
64458;BMP280;58438;51.200;7.252;2022-12-01T15:08:34;98617.44;;;4.45
64458;BMP280;58438;51.200;7.252;2022-12-01T15:11:32;98615.88;;;4.48
64458;BMP280;58438;51.200;7.252;2022-12-01T15:14:27;98626.28;;;4.46
64458;BMP280;58438;51.200;7.252;2022-12-01T15:17:24;98624.06;;;4.41
64458;BMP280;58438;51.200;7.252;2022-12-01T15:20:27;98620.00;;;4.29
64458;BMP280;58438;51.200;7.252;2022-12-01T15:23:15;98625.97;;;4.40
64458;BMP280;58438;51.200;7.252;2022-12-01T15:26:03;98625.94;;;4.44
64458;BMP280;58438;51.200;7.252;2022-12-01T15:29:04;98626.88;;;4.30
64458;BMP280;58438;51.200;7.252;2022-12-01T15:31:54;98620.66;;;4.33
64458;BMP280;58438;51.200;7.252;2022-12-01T15:34:43;98621.72;;;4.43
64458;BMP280;58438;51.200;7.252;2022-12-01T15:37:39;98627.84;;;4.47
64458;BMP280;58438;51.200;7.252;2022-12-01T15:40:28;98638.66;;;4.43
64458;BMP280;58438;51.200;7.252;2022-12-01T15:43:38;98636.75;;;4.40
64458;BMP280;58438;51.200;7.252;2022-12-01T15:46:29;98631.03;;;4.38
64458;BMP280;58438;51.200;7.252;2022-12-01T15:49:19;98630.63;;;4.40
64458;BMP280;58438;51.200;7.252;2022-12-01T15:52:10;98638.63;;;4.47
64458;BMP280;58438;51.200;7.252;2022-12-01T15:55:01;98644.69;;;4.51
64458;BMP280;58438;51.200;7.252;2022-12-01T15:57:49;98647.91;;;4.42
64458;BMP280;58438;51.200;7.252;2022-12-01T16:00:37;98642.56;;;4.39
64458;BMP280;58438;51.200;7.252;2022-12-01T16:03:26;98644.06;;;4.43
64458;BMP280;58438;51.200;7.252;2022-12-01T16:06:15;98635.84;;;4.50
64458;BMP280;58438;51.200;7.252;2022-12-01T16:09:05;98642.06;;;4.47
64458;BMP280;58438;51.200;7.252;2022-12-01T16:12:18;98629.28;;;4.51
64458;BMP280;58438;51.200;7.252;2022-12-01T16:15:14;98632.59;;;4.36
64458;BMP280;58438;51.200;7.252;2022-12-01T16:18:23;98626.97;;;4.27
64458;BMP280;58438;51.200;7.252;2022-12-01T16:21:14;98622.34;;;4.27
64458;BMP280;58438;51.200;7.252;2022-12-01T16:24:04;98615.56;;;4.42
64458;BMP280;58438;51.200;7.252;2022-12-01T16:26:53;98612.09;;;4.42
64458;BMP280;58438;51.200;7.252;2022-12-01T16:29:47;98605.22;;;4.37
64458;BMP280;58438;51.200;7.252;2022-12-01T16:32:37;98615.19;;;4.40
64458;BMP280;58438;51.200;7.252;2022-12-01T16:35:27;98613.84;;;4.29
64458;BMP280;58438;51.200;7.252;2022-12-01T16:38:19;98609.31;;;4.22
64458;BMP280;58438;51.200;7.252;2022-12-01T16:41:15;98610.59;;;4.41
64458;BMP280;58438;51.200;7.252;2022-12-01T16:44:03;98611.78;;;4.36
64458;BMP280;58438;51.200;7.252;2022-12-01T16:47:13;98606.56;;;4.26
64458;BMP280;58438;51.200;7.252;2022-12-01T16:50:00;98612.63;;;4.03
64458;BMP280;58438;51.200;7.252;2022-12-01T16:52:48;98617.81;;;4.17
64458;BMP280;58438;51.200;7.252;2022-12-01T16:58:28;98611.91;;;3.99
64458;BMP280;58438;51.200;7.252;2022-12-01T17:01:16;98614.28;;;3.94
64458;BMP280;58438;51.200;7.252;2022-12-01T17:04:04;98615.84;;;3.91
64458;BMP280;58438;51.200;7.252;2022-12-01T17:06:53;98619.72;;;3.90
64458;BMP280;58438;51.200;7.252;2022-12-01T17:09:41;98618.88;;;3.97
64458;BMP280;58438;51.200;7.252;2022-12-01T17:12:30;98625.09;;;3.90
64458;BMP280;58438;51.200;7.252;2022-12-01T17:15:17;98626.22;;;3.93
64458;BMP280;58438;51.200;7.252;2022-12-01T17:18:05;98612.22;;;4.05
64458;BMP280;58438;51.200;7.252;2022-12-01T17:20:56;98639.13;;;4.08
64458;BMP280;58438;51.200;7.252;2022-12-01T17:23:44;98633.53;;;3.92
64458;BMP280;58438;51.200;7.252;2022-12-01T17:29:21;98639.09;;;3.78
64458;BMP280;58438;51.200;7.252;2022-12-01T17:32:09;98637.59;;;3.74
64458;BMP280;58438;51.200;7.252;2022-12-01T17:34:59;98639.94;;;3.72
64458;BMP280;58438;51.200;7.252;2022-12-01T17:37:46;98649.53;;;3.76
64458;BMP280;58438;51.200;7.252;2022-12-01T17:40:34;98649.13;;;3.78
64458;BMP280;58438;51.200;7.252;2022-12-01T17:43:21;98645.44;;;3.65
64458;BMP280;58438;51.200;7.252;2022-12-01T17:48:59;98635.84;;;3.60
64458;BMP280;58438;51.200;7.252;2022-12-01T17:51:46;98634.59;;;3.68
64458;BMP280;58438;51.200;7.252;2022-12-01T17:54:34;98633.97;;;3.54
64458;BMP280;58438;51.200;7.252;2022-12-01T17:57:22;98632.75;;;3.62
64458;BMP280;58438;51.200;7.252;2022-12-01T18:00:11;98635.44;;;3.62
64458;BMP280;58438;51.200;7.252;2022-12-01T18:03:01;98630.09;;;3.58
64458;BMP280;58438;51.200;7.252;2022-12-01T18:05:56;98639.31;;;3.57
64458;BMP280;58438;51.200;7.252;2022-12-01T18:08:43;98641.66;;;3.55
64458;BMP280;58438;51.200;7.252;2022-12-01T18:11:31;98646.38;;;3.44
64458;BMP280;58438;51.200;7.252;2022-12-01T18:17:06;98640.22;;;3.44
64458;BMP280;58438;51.200;7.252;2022-12-01T18:33:52;98649.78;;;3.48
64458;BMP280;58438;51.200;7.252;2022-12-01T18:42:16;98649.63;;;3.25
64458;BMP280;58438;51.200;7.252;2022-12-01T18:45:04;98654.25;;;3.28
64458;BMP280;58438;51.200;7.252;2022-12-01T18:47:52;98651.22;;;3.19
64458;BMP280;58438;51.200;7.252;2022-12-01T18:50:40;98649.31;;;3.20
64458;BMP280;58438;51.200;7.252;2022-12-01T18:53:30;98648.00;;;3.38
64458;BMP280;58438;51.200;7.252;2022-12-01T18:56:17;98650.31;;;3.40
64458;BMP280;58438;51.200;7.252;2022-12-01T18:59:06;98652.50;;;3.45
64458;BMP280;58438;51.200;7.252;2022-12-01T19:01:54;98644.88;;;3.43
64458;BMP280;58438;51.200;7.252;2022-12-01T19:04:42;98645.78;;;3.26
64458;BMP280;58438;51.200;7.252;2022-12-01T19:07:30;98645.53;;;3.14
64458;BMP280;58438;51.200;7.252;2022-12-01T19:10:19;98649.53;;;3.39
64458;BMP280;58438;51.200;7.252;2022-12-01T19:13:07;98648.78;;;3.35
64458;BMP280;58438;51.200;7.252;2022-12-01T19:18:42;98642.00;;;3.20
64458;BMP280;58438;51.200;7.252;2022-12-01T19:21:29;98637.38;;;3.21
64458;BMP280;58438;51.200;7.252;2022-12-01T19:27:06;98629.81;;;3.09
64458;BMP280;58438;51.200;7.252;2022-12-01T19:29:54;98630.63;;;3.02
64458;BMP280;58438;51.200;7.252;2022-12-01T19:32:41;98624.44;;;3.09
64458;BMP280;58438;51.200;7.252;2022-12-01T19:35:30;98628.50;;;2.80
64458;BMP280;58438;51.200;7.252;2022-12-01T19:38:17;98628.78;;;2.92
64458;BMP280;58438;51.200;7.252;2022-12-01T19:41:06;98627.97;;;2.99
64458;BMP280;58438;51.200;7.252;2022-12-01T19:43:56;98624.13;;;2.96
64458;BMP280;58438;51.200;7.252;2022-12-01T19:46:44;98631.84;;;2.94
64458;BMP280;58438;51.200;7.252;2022-12-01T19:57:55;98639.66;;;2.79
64458;BMP280;58438;51.200;7.252;2022-12-01T20:00:44;98639.16;;;2.94
64458;BMP280;58438;51.200;7.252;2022-12-01T20:06:22;98639.53;;;2.92
64458;BMP280;58438;51.200;7.252;2022-12-01T20:11:57;98645.78;;;2.83
64458;BMP280;58438;51.200;7.252;2022-12-01T20:14:45;98632.81;;;2.64
64458;BMP280;58438;51.200;7.252;2022-12-01T20:17:35;98634.69;;;2.74
64458;BMP280;58438;51.200;7.252;2022-12-01T20:20:22;98646.22;;;2.71
64458;BMP280;58438;51.200;7.252;2022-12-01T20:23:10;98639.34;;;2.70
64458;BMP280;58438;51.200;7.252;2022-12-01T20:25:59;98638.53;;;2.73
64458;BMP280;58438;51.200;7.252;2022-12-01T20:31:35;98643.13;;;2.76
64458;BMP280;58438;51.200;7.252;2022-12-01T20:37:13;98635.47;;;2.74
64458;BMP280;58438;51.200;7.252;2022-12-01T20:42:49;98632.84;;;2.60
64458;BMP280;58438;51.200;7.252;2022-12-01T20:45:36;98632.91;;;2.57
64458;BMP280;58438;51.200;7.252;2022-12-01T20:48:24;98628.25;;;2.61
64458;BMP280;58438;51.200;7.252;2022-12-01T20:54:03;98618.59;;;2.63
64458;BMP280;58438;51.200;7.252;2022-12-01T20:57:10;98624.38;;;2.65
64458;BMP280;58438;51.200;7.252;2022-12-01T20:59:58;98620.94;;;2.61
64458;BMP280;58438;51.200;7.252;2022-12-01T21:02:46;98616.72;;;2.60
64458;BMP280;58438;51.200;7.252;2022-12-01T21:05:37;98622.44;;;2.66
64458;BMP280;58438;51.200;7.252;2022-12-01T21:08:26;98625.03;;;2.80
